Time;durP1;ratioP1;P1;durP2;ratioP2;P2;SDS_P1;SDS_P2;PMS_P1;PMS_P2;Temp;Humidity;BMP_temperature;BMP_pressure;BME280_temperature;BME280_humidity;BME280_pressure;Samples;Min_cycle;Max_cycle;Signal;HPM_P1;HPM_P2
2022/06/03 00:02:53;;;;;;;4.72;3.08;;;;;;;7.82;100.00;102090.16;5032161;28;20207;-44
2022/06/03 00:05:59;;;;;;;4.32;2.60;;;;;;;7.90;100.00;102102.59;5064084;28;20643;-45
2022/06/03 00:08:55;;;;;;;4.30;2.92;;;;;;;7.96;100.00;102089.19;5031670;28;20176;-46
2022/06/03 00:11:20;;;;;;;5.07;3.55;;;;;;;7.95;100.00;102100.78;5031958;28;20628;-45
2022/06/03 00:14:09;;;;;;;9.05;3.08;;;;;;;7.95;100.00;102100.78;5031880;28;20288;-50
2022/06/03 00:17:00;;;;;;;7.47;3.28;;;;;;;7.89;100.00;102100.81;5031881;28;20187;-43
2022/06/03 00:19:43;;;;;;;3.92;2.92;;;;;;;7.95;100.00;102106.97;5031952;28;20169;-45
2022/06/03 00:22:35;;;;;;;6.43;3.80;;;;;;;7.88;100.00;102112.38;5031716;28;20179;-49
2022/06/03 00:25:38;;;;;;;6.03;3.03;;;;;;;7.87;100.00;102103.50;5030990;28;20310;-47
2022/06/03 00:28:12;;;;;;;4.88;3.28;;;;;;;7.81;100.00;102106.22;5031294;28;20179;-48
2022/06/03 00:30:54;;;;;;;4.65;3.13;;;;;;;7.79;100.00;102083.97;5030074;28;20191;-48
2022/06/03 00:34:01;;;;;;;5.47;3.35;;;;;;;7.83;100.00;102091.06;5030993;28;20691;-49
2022/06/03 00:36:45;;;;;;;5.22;3.17;;;;;;;7.80;100.00;102099.97;5031191;28;20192;-49
2022/06/03 00:39:22;;;;;;;3.92;3.20;;;;;;;7.74;100.00;102089.34;5031480;28;20275;-49
2022/06/03 00:42:06;;;;;;;5.18;3.08;;;;;;;7.88;100.00;102091.91;5030750;28;20168;-50
2022/06/03 00:44:50;;;;;;;5.80;3.55;;;;;;;7.81;100.00;102091.06;5062344;28;20291;-50
2022/06/03 00:47:44;;;;;;;4.07;3.40;;;;;;;7.88;100.00;102099.03;5030901;28;20192;-48
2022/06/03 00:50:31;;;;;;;4.70;2.97;;;;;;;7.86;100.00;102100.84;5031153;28;20219;-48
2022/06/03 00:53:15;;;;;;;6.10;3.38;;;;;;;7.75;100.00;102090.22;5030662;28;20579;-49
2022/06/03 00:56:03;;;;;;;7.88;3.45;;;;;;;7.62;100.00;102092.97;5030752;28;20196;-49
2022/06/03 00:58:47;;;;;;;9.05;3.45;;;;;;;7.69;100.00;102090.25;5030957;28;20501;-50
2022/06/03 01:01:29;;;;;;;4.82;3.60;;;;;;;7.72;100.00;102084.91;5030889;28;20169;-48
2022/06/03 01:04:03;;;;;;;7.28;3.35;;;;;;;7.64;100.00;102090.28;5030398;28;20199;-49
2022/06/03 01:06:57;;;;;;;5.80;3.63;;;;;;;7.67;100.00;102087.59;5030510;28;20199;-49
2022/06/03 01:09:31;;;;;;;10.02;4.10;;;;;;;7.58;100.00;102088.53;5030451;28;20631;-48
2022/06/03 01:12:09;;;;;;;5.53;4.00;;;;;;;7.71;100.00;102102.69;5030960;28;20175;-48
2022/06/03 01:15:05;;;;;;;7.43;4.05;;;;;;;7.69;100.00;102100.94;5030044;28;20211;-48
2022/06/03 01:17:40;;;;;;;11.45;4.65;;;;;;;7.66;100.00;102093.84;5030793;28;20215;-49
2022/06/03 01:20:17;;;;;;;5.15;3.67;;;;;;;7.69;100.00;102093.81;5029816;28;20202;-48
2022/06/03 01:23:12;;;;;;;4.45;3.30;;;;;;;7.72;100.00;102107.16;5030376;28;20609;-49
2022/06/03 01:25:59;;;;;;;7.03;4.43;;;;;;;7.60;100.00;102091.19;5030127;28;20238;-48
2022/06/03 01:28:36;;;;;;;5.63;4.30;;;;;;;7.69;100.00;102090.25;5030607;28;20270;-47
2022/06/03 01:31:26;;;;;;;5.82;4.20;;;;;;;7.76;100.00;102097.31;5030348;28;20179;-49
2022/06/03 01:34:25;;;;;;;5.45;4.95;;;;;;;7.71;100.00;102100.03;5029808;28;20690;-50
2022/06/03 01:37:24;;;;;;;5.88;4.70;;;;;;;7.72;100.00;102095.56;5030182;28;20208;-50
2022/06/03 01:40:20;;;;;;;7.72;4.75;;;;;;;7.64;100.00;102100.97;5030340;28;20171;-47
2022/06/03 01:43:16;;;;;;;7.63;4.82;;;;;;;7.72;100.00;102095.56;5022459;28;20215;-50
2022/06/03 01:45:57;;;;;;;7.75;4.70;;;;;;;7.74;100.00;102109.78;5029627;28;20191;-48
2022/06/03 01:49:01;;;;;;;6.32;4.90;;;;;;;7.64;100.00;102106.28;5030208;28;20172;-49
2022/06/03 01:52:11;;;;;;;6.78;4.78;;;;;;;7.58;100.00;102101.88;5030183;28;20210;-49
2022/06/03 01:55:21;;;;;;;5.20;4.70;;;;;;;7.67;100.00;102098.25;5026389;28;20207;-48
2022/06/03 01:58:17;;;;;;;8.25;5.05;;;;;;;7.63;100.00;102099.16;5030015;28;20682;-49
2022/06/03 02:00:48;;;;;;;6.75;4.97;;;;;;;7.63;100.00;102099.16;5029510;28;20204;-48
2022/06/03 02:03:36;;;;;;;5.60;4.80;;;;;;;7.64;100.00;102092.97;5027998;28;20198;-50
2022/06/03 02:06:42;;;;;;;9.18;4.95;;;;;;;7.62;100.00;102102.75;5029943;28;20187;-48
2022/06/03 02:09:40;;;;;;;5.93;5.07;;;;;;;7.62;100.00;102098.28;5029343;28;20186;-50
2022/06/03 02:12:40;;;;;;;10.18;6.22;;;;;;;7.48;100.00;102100.16;5029997;28;20173;-48
2022/06/03 02:15:23;;;;;;;6.82;5.30;;;;;;;7.51;100.00;102097.47;5028989;28;20208;-48
2022/06/03 02:18:10;;;;;;;8.02;4.50;;;;;;;7.53;100.00;102093.00;5029625;28;20184;-49
2022/06/03 02:20:54;;;;;;;8.40;5.10;;;;;;;7.42;100.00;102089.53;5028608;28;20274;-49
2022/06/03 02:23:47;;;;;;;8.18;5.15;;;;;;;7.42;100.00;102087.72;5029406;28;20207;-49
2022/06/03 02:26:27;;;;;;;5.13;4.63;;;;;;;7.46;100.00;102088.63;5015628;28;20207;-49
2022/06/03 02:32:40;;;;;;;5.60;5.10;;;;;;;7.40;100.00;102092.19;5012679;28;20177;-47
2022/06/03 02:35:33;;;;;;;5.47;4.82;;;;;;;7.41;100.00;102090.41;4952788;28;20191;-48
2022/06/03 02:38:35;;;;;;;6.90;4.85;;;;;;;7.33;100.00;102082.44;5012328;28;20193;-49
2022/06/03 02:41:38;;;;;;;7.07;5.22;;;;;;;7.32;100.00;102078.00;5013515;28;20172;-49
2022/06/03 02:44:25;;;;;;;5.90;5.20;;;;;;;7.24;100.00;102093.16;5011235;28;20755;-50
2022/06/03 02:47:08;;;;;;;8.13;5.13;;;;;;;7.19;100.00;102087.84;5013360;28;20222;-49
2022/06/03 02:50:13;;;;;;;6.13;4.82;;;;;;;7.10;100.00;102084.31;5013266;28;20189;-49
2022/06/03 02:53:06;;;;;;;6.13;4.85;;;;;;;7.16;100.00;102092.31;5013301;28;20184;-49
2022/06/03 02:56:12;;;;;;;6.15;4.60;;;;;;;7.15;100.00;102096.75;5013105;28;20176;-51
2022/06/03 02:58:50;;;;;;;6.45;4.93;;;;;;;7.00;100.00;102103.00;5013130;28;20252;-49
2022/06/03 03:01:33;;;;;;;5.22;4.72;;;;;;;7.04;100.00;102098.56;5013082;28;20768;-48
2022/06/03 03:04:17;;;;;;;5.75;5.18;;;;;;;6.83;100.00;102101.28;5011280;28;20282;-50
2022/06/03 03:07:20;;;;;;;5.30;4.80;;;;;;;6.74;100.00;102100.41;5012789;28;20215;-48
2022/06/03 03:09:58;;;;;;;5.40;4.82;;;;;;;6.77;100.00;102102.19;5013095;28;20183;-49
2022/06/03 03:13:07;;;;;;;6.68;4.50;;;;;;;6.80;100.00;102097.75;5012634;28;20262;-47
2022/06/03 03:16:05;;;;;;;5.25;4.75;;;;;;;6.76;100.00;102087.97;4952249;29;20186;-48
2022/06/03 03:18:59;;;;;;;6.88;5.30;;;;;;;6.77;100.00;102092.41;4931172;29;20299;-49
2022/06/03 03:22:00;;;;;;;7.47;4.97;;;;;;;6.70;100.00;102097.75;4983582;28;20328;-50
2022/06/03 03:24:34;;;;;;;5.47;4.95;;;;;;;6.62;100.00;102100.41;4958405;28;20462;-49
2022/06/03 03:27:23;;;;;;;6.43;4.60;;;;;;;6.72;100.00;102104.84;5011390;28;20212;-49
2022/06/03 03:30:17;;;;;;;6.18;4.63;;;;;;;6.73;100.00;102098.63;5012753;28;20176;-49
2022/06/03 03:33:22;;;;;;;7.57;4.63;;;;;;;6.76;100.00;102108.41;5012177;28;20296;-49
2022/06/03 03:36:03;;;;;;;8.93;4.93;;;;;;;6.85;100.00;102105.72;5012388;28;20218;-47
2022/06/03 03:38:43;;;;;;;6.97;5.05;;;;;;;6.81;100.00;102109.28;5012419;28;20200;-49
2022/06/03 03:41:39;;;;;;;6.18;4.60;;;;;;;6.94;100.00;102112.81;5012386;28;20186;-49
2022/06/03 03:44:31;;;;;;;6.70;5.38;;;;;;;6.92;100.00;102110.13;5029098;28;20203;-49
2022/06/03 03:47:21;;;;;;;6.13;5.07;;;;;;;6.89;100.00;102109.28;5031133;28;20203;-48
2022/06/03 03:50:06;;;;;;;5.88;5.18;;;;;;;6.92;100.00;102119.91;5032413;28;20172;-48
2022/06/03 03:52:34;;;;;;;8.38;5.55;;;;;;;6.98;100.00;102107.47;5031973;28;20160;-49
2022/06/03 03:55:24;;;;;;;6.38;5.22;;;;;;;7.08;100.00;102110.09;5031795;28;20204;-49
2022/06/03 03:58:20;;;;;;;6.28;5.68;;;;;;;7.10;100.00;102109.19;5032137;28;20230;-48
2022/06/03 04:01:07;;;;;;;6.03;5.43;;;;;;;7.11;100.00;102110.09;5031863;28;20185;-49
2022/06/03 04:04:00;;;;;;;6.22;5.65;;;;;;;7.11;100.00;102121.63;5031258;28;20191;-48
2022/06/03 04:06:59;;;;;;;6.15;5.55;;;;;;;7.25;100.00;102112.69;5032055;28;20212;-49
2022/06/03 04:09:46;;;;;;;6.22;5.50;;;;;;;7.32;100.00;102119.78;5031538;28;20817;-48
2022/06/03 04:12:36;;;;;;;6.70;5.97;;;;;;;7.40;100.00;102113.53;5031678;28;20254;-48
2022/06/03 04:15:30;;;;;;;6.25;5.63;;;;;;;7.53;100.00;102111.69;5030897;28;20173;-47
2022/06/03 04:18:33;;;;;;;5.25;4.80;;;;;;;7.66;100.00;102114.31;5031792;28;20217;-47
2022/06/03 04:21:24;;;;;;;10.60;6.90;;;;;;;7.65;100.00;102129.38;5008123;28;20214;-50
2022/06/03 04:24:27;;;;;;;7.18;6.25;;;;;;;7.80;100.00;102120.44;5030826;28;20202;-48
2022/06/03 04:27:24;;;;;;;7.85;6.00;;;;;;;7.92;100.00;102119.47;5010216;28;20204;-49
2022/06/03 04:30:14;;;;;;;7.85;7.07;;;;;;;8.01;100.00;102119.41;5011746;28;20267;-47
2022/06/03 04:32:57;;;;;;;9.02;8.13;;;;;;;8.17;100.00;102118.38;5011138;28;20172;-46
2022/06/03 04:35:32;;;;;;;13.00;9.10;;;;;;;8.24;100.00;102114.78;5011409;28;20639;-49
2022/06/03 04:38:08;;;;;;;10.98;9.18;;;;;;;8.38;100.00;102116.47;5011060;28;20585;-48
2022/06/03 04:40:52;;;;;;;11.02;9.77;;;;;;;8.49;100.00;102111.94;5011151;28;20196;-47
2022/06/03 04:43:56;;;;;;;12.60;11.30;;;;;;;8.59;100.00;102113.66;5010820;28;20290;-47
2022/06/03 04:46:30;;;;;;;12.38;11.15;;;;;;;8.68;100.00;102117.09;5011258;28;20184;-48
2022/06/03 04:49:14;;;;;;;16.50;11.73;;;;;;;8.69;100.00;102117.09;5010568;28;20182;-50
2022/06/03 04:52:10;;;;;;;15.40;11.98;;;;;;;8.76;100.00;102115.25;5011294;28;20348;-49
2022/06/03 04:54:52;;;;;;;13.65;11.15;;;;;;;8.87;100.00;102113.34;5010267;28;20205;-49
2022/06/03 04:57:33;;;;;;;15.82;11.35;;;;;;;8.89;100.00;102113.34;5010441;28;20183;-50
2022/06/03 05:00:24;;;;;;;11.90;10.65;;;;;;;8.96;100.00;102115.91;5011054;28;20632;-48
2022/06/03 05:03:14;;;;;;;13.63;10.38;;;;;;;9.04;100.00;102116.72;5010607;28;20711;-48
2022/06/03 05:06:07;;;;;;;15.15;10.02;;;;;;;9.06;100.00;102117.59;5011119;28;20636;-48
2022/06/03 05:09:04;;;;;;;12.10;10.35;;;;;;;9.14;100.00;102122.88;5010850;28;20554;-49
2022/06/03 05:11:54;;;;;;;10.70;9.60;;;;;;;9.21;100.00;102121.88;5010704;28;20175;-49
2022/06/03 05:14:39;;;;;;;13.63;9.20;;;;;;;9.20;100.00;102127.25;5010061;28;20200;-48
2022/06/03 05:17:29;;;;;;;13.00;9.70;;;;;;;9.26;100.00;102136.06;5011013;28;20364;-47
2022/06/03 05:20:04;;;;;;;9.55;8.48;;;;;;;9.36;100.00;102138.63;5009963;28;20636;-48
2022/06/03 05:22:47;;;;;;;12.00;8.50;;;;;;;9.39;100.00;102136.81;5010390;28;20204;-47
2022/06/03 05:25:25;;;;;;;12.93;7.90;;;;;;;9.48;100.00;102138.50;5009735;28;20188;-49
2022/06/03 05:28:09;;;;;;;11.95;7.95;;;;;;;9.57;100.00;102134.81;5009156;28;20202;-48
2022/06/03 05:31:11;;;;;;;9.45;7.80;;;;;;;9.54;100.00;102138.41;5010465;28;20181;-48
2022/06/03 05:33:39;;;;;;;10.25;7.20;;;;;;;9.63;100.00;102142.78;5010100;28;20184;-50
2022/06/03 05:36:23;;;;;;;9.57;7.43;;;;;;;9.75;100.00;102147.06;5010718;28;20187;-48
2022/06/03 05:39:26;;;;;;;10.55;6.82;;;;;;;9.54;100.00;102145.56;5008519;28;20175;-46
2022/06/03 05:42:29;;;;;;;13.27;6.80;;;;;;;9.60;100.00;102142.78;5010713;28;20596;-50
2022/06/03 05:45:12;;;;;;;7.15;6.45;;;;;;;9.59;100.00;102149.94;5009850;28;20172;-46
2022/06/03 05:47:47;;;;;;;10.68;6.53;;;;;;;9.78;100.00;102142.56;5017567;28;20196;-48
2022/06/03 05:50:24;;;;;;;8.13;5.88;;;;;;;9.88;100.00;102141.53;5030058;28;20562;-48
2022/06/03 05:53:07;;;;;;;6.90;5.35;;;;;;;10.07;99.90;102146.59;5034697;28;20230;-49
2022/06/03 05:55:56;;;;;;;8.02;5.78;;;;;;;10.10;99.05;102138.50;5029228;28;20211;-49
2022/06/03 05:58:37;;;;;;;11.63;6.05;;;;;;;10.23;98.39;102141.91;5028467;28;20168;-49
2022/06/03 06:01:12;;;;;;;11.98;6.10;;;;;;;10.35;97.48;102144.41;5029541;28;20184;-50
2022/06/03 06:04:15;;;;;;;7.78;5.95;;;;;;;10.70;96.01;102137.56;5027883;28;20274;-47
2022/06/03 06:06:59;;;;;;;8.63;5.13;;;;;;;10.91;94.52;102138.97;5031709;28;20191;-49
2022/06/03 06:09:33;;;;;;;9.45;6.18;;;;;;;10.87;93.45;102139.97;5032058;28;20585;-49
2022/06/03 06:12:17;;;;;;;9.50;5.75;;;;;;;10.58;92.52;102124.38;5031858;28;20619;-48
2022/06/03 06:14:54;;;;;;;5.88;5.07;;;;;;;10.63;91.92;102128.75;5031497;28;20188;-48
2022/06/03 06:17:32;;;;;;;8.52;5.55;;;;;;;10.51;91.20;102143.25;5032045;28;20206;-47
2022/06/03 06:20:12;;;;;;;5.78;4.68;;;;;;;10.95;91.29;102143.38;5031766;28;20206;-48
2022/06/03 06:22:46;;;;;;;5.65;4.88;;;;;;;10.96;91.50;102141.59;5031646;28;20195;-42
2022/06/03 06:25:29;;;;;;;6.47;4.80;;;;;;;11.10;91.37;102132.34;5031746;28;20187;-44
2022/06/03 06:28:01;;;;;;;7.22;4.90;;;;;;;11.21;90.29;102116.03;5032044;28;20207;-44
2022/06/03 06:30:39;;;;;;;5.22;4.35;;;;;;;11.58;88.77;102117.06;5030821;28;20195;-45
2022/06/03 06:33:32;;;;;;;9.40;4.78;;;;;;;11.28;87.98;102119.47;5031665;28;20508;-44
2022/06/03 06:35:58;;;;;;;10.00;5.30;;;;;;;11.10;88.41;102126.09;5031525;28;20592;-42
2022/06/03 06:38:38;;;;;;;6.88;5.53;;;;;;;10.97;89.71;102124.56;5031925;28;20211;-43
2022/06/03 06:41:38;;;;;;;9.40;5.47;;;;;;;11.20;89.50;102121.47;5031714;28;20226;-49
2022/06/03 06:44:31;;;;;;;7.25;5.00;;;;;;;11.41;88.13;102118.31;5028705;28;20184;-48
2022/06/03 06:47:16;;;;;;;6.55;4.80;;;;;;;11.38;87.87;102114.81;5031516;28;20208;-46
2022/06/03 06:49:51;;;;;;;6.28;4.50;;;;;;;11.47;86.80;102112.81;5031268;28;20610;-47
2022/06/03 06:52:44;;;;;;;6.03;4.50;;;;;;;11.33;87.03;102122.97;5032654;28;20183;-48
2022/06/03 06:55:22;;;;;;;8.00;5.53;;;;;;;11.26;87.06;102118.63;5032401;28;20631;-49
2022/06/03 06:57:55;;;;;;;8.68;6.00;;;;;;;12.08;86.66;102118.63;5033155;28;20183;-45
2022/06/03 07:00:28;;;;;;;10.95;6.00;;;;;;;11.53;85.87;102119.88;5033019;28;20180;-48
2022/06/03 07:03:14;;;;;;;6.18;5.35;;;;;;;11.02;87.12;102128.94;5031282;28;20188;-49
2022/06/03 07:05:39;;;;;;;6.40;4.95;;;;;;;11.38;86.31;102125.56;5033001;28;20183;-48
2022/06/03 07:08:16;;;;;;;7.55;4.90;;;;;;;11.37;86.47;102118.41;5032563;28;20752;-47
2022/06/03 07:10:42;;;;;;;7.63;5.45;;;;;;;11.29;86.93;102119.47;5032866;28;20172;-49
2022/06/03 07:13:32;;;;;;;7.93;5.28;;;;;;;11.64;87.75;102112.47;5032060;28;20218;-47
2022/06/03 07:16:15;;;;;;;15.57;5.63;;;;;;;12.79;84.64;102108.81;5032539;28;20204;-47
2022/06/03 07:22:08;;;;;;;4.63;3.70;;;;;;;13.39;81.25;102105.31;5032807;28;20168;-48
2022/06/03 07:24:41;;;;;;;8.73;4.30;;;;;;;13.16;80.01;102103.28;5031291;28;20206;-49
2022/06/03 07:27:15;;;;;;;6.80;3.85;;;;;;;13.30;79.05;102102.03;5011333;28;20240;-47
2022/06/03 07:29:48;;;;;;;6.53;3.95;;;;;;;13.24;79.68;102104.84;5013174;28;20208;-49
2022/06/03 07:32:25;;;;;;;5.25;4.13;;;;;;;13.25;78.83;102103.91;5012636;28;20196;-49
2022/06/03 07:34:59;;;;;;;7.03;4.05;;;;;;;12.62;79.69;102101.19;5015876;28;20180;-47
2022/06/03 07:37:44;;;;;;;6.60;4.60;;;;;;;12.33;81.46;102100.13;5030873;28;20171;-47
2022/06/03 07:40:20;;;;;;;6.10;4.53;;;;;;;13.17;81.52;102090.69;5032258;28;20164;-47
2022/06/03 07:42:54;;;;;;;5.80;4.30;;;;;;;13.69;79.41;102091.00;5032240;28;20208;-47
2022/06/03 07:45:28;;;;;;;5.15;3.88;;;;;;;13.32;77.72;102101.06;5031452;28;20167;-48
2022/06/03 07:47:57;;;;;;;5.85;4.15;;;;;;;13.39;79.20;102108.00;5032024;28;20196;-48
2022/06/03 07:50:26;;;;;;;6.47;3.83;;;;;;;13.43;77.64;102103.44;5030327;28;20267;-48
2022/06/03 07:52:58;;;;;;;7.20;3.50;;;;;;;13.03;78.49;102101.88;5031241;28;20229;-47
2022/06/03 07:55:26;;;;;;;8.40;4.65;;;;;;;12.90;79.43;102103.09;5032182;28;20176;-48
2022/06/03 07:58:02;;;;;;;4.90;4.00;;;;;;;12.43;80.10;102098.06;5031886;28;20183;-46
2022/06/03 08:00:28;;;;;;;6.30;3.75;;;;;;;13.19;80.80;102096.91;5031527;28;20175;-46
2022/06/03 08:03:14;;;;;;;5.03;3.67;;;;;;;14.05;78.42;102097.00;5031097;28;20212;-46
2022/06/03 08:05:41;;;;;;;5.07;3.85;;;;;;;14.11;76.44;102094.13;5029305;28;20234;-47
2022/06/03 08:10:57;;;;;;;6.68;3.40;;;;;;;13.83;76.01;102090.53;5031177;28;20688;-49
2022/06/03 08:13:34;;;;;;;5.20;3.97;;;;;;;14.28;75.04;102077.38;5030893;28;20245;-46
2022/06/03 08:16:05;;;;;;;9.13;4.07;;;;;;;14.77;74.54;102091.00;5031153;28;20171;-48
2022/06/03 08:18:35;;;;;;;6.53;3.83;;;;;;;14.42;74.98;102090.38;5031553;28;20391;-47
2022/06/03 08:21:06;;;;;;;6.05;4.03;;;;;;;14.35;74.32;102095.13;5031874;28;20183;-47
2022/06/03 08:23:34;;;;;;;5.82;3.92;;;;;;;14.82;75.07;102087.22;5030331;28;20273;-48
2022/06/03 08:26:07;;;;;;;4.15;3.67;;;;;;;15.56;72.78;102087.16;5019019;28;20262;-47
2022/06/03 08:28:37;;;;;;;4.35;3.53;;;;;;;15.63;70.39;102088.69;5010743;28;20189;-47
2022/06/03 08:31:06;;;;;;;7.03;3.80;;;;;;;15.92;71.90;102083.97;5011565;28;20188;-47
2022/06/03 08:33:46;;;;;;;5.90;3.50;;;;;;;15.60;68.04;102093.31;5010311;28;20254;-47
2022/06/03 08:36:19;;;;;;;5.68;3.50;;;;;;;15.71;68.96;102092.91;5023574;28;20176;-47
2022/06/03 08:38:52;;;;;;;7.28;3.42;;;;;;;16.21;68.31;102092.72;5030211;28;20680;-48
2022/06/03 08:41:30;;;;;;;5.13;3.55;;;;;;;15.37;69.10;102100.50;5030774;28;20187;-46
2022/06/03 08:44:05;;;;;;;5.25;3.60;;;;;;;14.95;69.79;102111.06;5030509;28;20192;-47
2022/06/03 08:47:06;;;;;;;9.30;4.70;;;;;;;14.01;73.98;102107.03;5030324;28;20256;-47
2022/06/03 08:49:58;;;;;;;6.88;4.50;;;;;;;15.56;74.12;102097.06;5030236;28;20578;-47
2022/06/03 08:52:35;;;;;;;5.75;3.65;;;;;;;16.32;70.93;102100.38;5030448;28;20180;-46
2022/06/03 08:55:08;;;;;;;9.20;4.00;;;;;;;16.24;66.19;102097.97;5028476;28;20194;-48
2022/06/03 08:57:47;;;;;;;6.55;3.33;;;;;;;16.54;66.62;102103.03;5030565;28;20255;-46
2022/06/03 09:00:18;;;;;;;6.55;3.60;;;;;;;15.96;65.49;102099.13;5030298;28;20310;-48
2022/06/03 09:02:59;;;;;;;4.90;3.55;;;;;;;16.09;65.94;102109.41;5030456;28;20677;-47
2022/06/03 09:05:32;;;;;;;6.20;3.22;;;;;;;16.42;65.68;102102.63;5023119;28;20194;-48
2022/06/03 09:08:13;;;;;;;5.45;3.25;;;;;;;16.57;63.88;102100.19;5029402;28;20211;-47
2022/06/03 09:11:15;;;;;;;4.72;3.45;;;;;;;16.66;64.77;102106.09;5014335;28;20180;-46
2022/06/03 09:14:09;;;;;;;7.68;3.58;;;;;;;16.68;63.20;102106.94;5029937;28;20227;-46
2022/06/03 09:16:37;;;;;;;5.45;3.00;;;;;;;17.38;61.19;102096.63;5030566;28;20873;-49
2022/06/03 09:19:23;;;;;;;5.45;3.05;;;;;;;17.27;63.97;102099.81;5030548;28;20218;-46
2022/06/03 09:21:51;;;;;;;5.22;3.40;;;;;;;17.17;63.05;102093.06;5030425;28;20287;-45
2022/06/03 09:24:31;;;;;;;4.53;3.00;;;;;;;17.51;63.18;102094.19;5029490;28;20208;-47
2022/06/03 09:26:59;;;;;;;3.95;2.70;;;;;;;17.85;59.62;102092.63;5010717;28;20193;-48
2022/06/03 09:29:26;;;;;;;5.13;3.10;;;;;;;17.17;63.25;102086.75;5009287;28;20220;-47
2022/06/03 09:31:55;;;;;;;4.07;2.85;;;;;;;17.15;62.87;102091.38;5008880;28;20165;-46
2022/06/03 09:34:40;;;;;;;5.07;3.08;;;;;;;17.58;60.72;102086.63;5010059;28;20601;-47
2022/06/03 09:37:09;;;;;;;6.90;3.45;;;;;;;17.55;62.05;102090.38;5010328;28;20568;-48
2022/06/03 09:39:34;;;;;;;5.40;3.28;;;;;;;17.23;64.61;102097.28;5009208;28;20161;-48
2022/06/03 09:42:01;;;;;;;5.70;2.88;;;;;;;17.82;62.87;102090.03;5009510;28;20188;-46
2022/06/03 09:44:28;;;;;;;5.88;2.97;;;;;;;17.63;62.41;102099.03;5009924;28;20330;-47
2022/06/03 09:47:06;;;;;;;3.08;2.50;;;;;;;18.41;62.08;102083.47;5009891;28;20609;-46
2022/06/03 09:49:32;;;;;;;5.30;3.13;;;;;;;17.85;64.00;102087.19;5010274;28;20164;-48
2022/06/03 09:52:00;;;;;;;7.20;3.13;;;;;;;18.06;62.02;102091.56;5010470;28;20779;-46
2022/06/03 09:54:40;;;;;;;3.80;2.70;;;;;;;18.16;61.53;102082.97;5009396;28;20204;-48
2022/06/03 09:57:09;;;;;;;5.85;2.50;;;;;;;18.27;60.29;102076.03;5009763;28;20222;-47
2022/06/03 09:59:37;;;;;;;4.15;2.90;;;;;;;18.51;59.82;102071.16;5010134;28;20208;-45
2022/06/03 10:02:05;;;;;;;6.43;2.88;;;;;;;18.17;60.09;102069.31;5010318;28;20195;-46
2022/06/03 10:04:30;;;;;;;3.28;2.80;;;;;;;18.30;62.90;102070.47;5009779;28;20271;-46
2022/06/03 10:07:00;;;;;;;2.58;2.20;;;;;;;18.52;61.93;102077.50;5009769;28;20205;-45
2022/06/03 10:17:47;;;;;;;7.18;3.35;;;;;;;18.10;64.10;102074.19;5009892;28;20177;-46
2022/06/03 10:20:14;;;;;;;3.90;3.03;;;;;;;17.08;63.30;102072.69;5009838;28;20196;-44
2022/06/03 10:22:40;;;;;;;6.05;3.05;;;;;;;17.74;62.51;102075.97;5010015;28;20702;-47
2022/06/03 10:25:08;;;;;;;5.18;3.45;;;;;;;17.52;63.71;102081.53;5009295;28;20173;-49
2022/06/03 10:27:34;;;;;;;4.95;2.92;;;;;;;17.89;62.93;102075.25;5010450;28;20193;-49
2022/06/03 10:29:59;;;;;;;4.75;2.90;;;;;;;17.50;63.78;102079.75;5009663;28;20746;-48
2022/06/03 10:32:26;;;;;;;3.55;2.60;;;;;;;16.89;63.47;102067.22;5009715;28;20272;-48
2022/06/03 10:35:03;;;;;;;6.70;2.95;;;;;;;16.86;63.68;102066.50;5009431;28;20644;-46
2022/06/03 10:37:29;;;;;;;4.30;2.60;;;;;;;16.44;64.41;102065.56;5010267;28;20227;-49
2022/06/03 10:39:56;;;;;;;4.50;3.03;;;;;;;17.09;65.37;102058.19;5010007;28;20161;-47
2022/06/03 10:42:23;;;;;;;4.25;2.80;;;;;;;17.33;63.83;102059.84;5009834;28;20835;-47
2022/06/03 10:44:55;;;;;;;4.22;3.00;;;;;;;17.34;64.29;102064.28;5009390;28;20196;-49
2022/06/03 10:47:43;;;;;;;4.65;2.88;;;;;;;17.47;63.16;102052.81;5009712;28;20215;-47
2022/06/03 10:50:27;;;;;;;4.25;2.97;;;;;;;17.56;63.60;102040.66;5010003;28;20181;-48
2022/06/03 11:01:43;;;;;;;3.50;2.50;;;;;;;18.46;59.26;102037.09;5013319;28;20192;-49
2022/06/03 11:04:24;;;;;;;3.13;2.50;;;;;;;18.15;60.06;102035.06;5012495;28;20193;-49
2022/06/03 11:06:50;;;;;;;2.75;2.08;;;;;;;18.86;59.04;102030.47;5013341;28;20204;-49
2022/06/03 11:09:17;;;;;;;5.22;2.30;;;;;;;19.03;56.77;102036.81;5013369;28;20554;-48
2022/06/03 11:11:51;;;;;;;2.58;2.10;;;;;;;18.73;57.82;102024.78;5013082;28;20176;-49
2022/06/03 11:14:26;;;;;;;4.30;2.50;;;;;;;17.42;59.68;102033.16;5012325;28;20200;-49
2022/06/03 11:17:16;;;;;;;5.65;2.70;;;;;;;17.34;61.87;102034.47;5019859;28;20187;-49
2022/06/03 11:19:48;;;;;;;5.47;3.13;;;;;;;17.23;62.20;102032.28;5048185;28;20190;-49
2022/06/03 11:22:23;;;;;;;3.60;2.90;;;;;;;17.12;62.05;102035.53;5052838;28;20160;-47
2022/06/03 11:25:17;;;;;;;5.50;3.00;;;;;;;17.15;61.40;102034.50;5047647;28;20210;-50
2022/06/03 11:27:48;;;;;;;3.30;2.70;;;;;;;17.15;62.33;102029.94;5012636;28;20201;-49
2022/06/03 11:30:30;;;;;;;3.72;2.92;;;;;;;17.40;62.70;102021.53;5011855;28;20181;-47
2022/06/03 11:33:02;;;;;;;4.68;3.17;;;;;;;17.24;62.41;102017.81;5012250;28;20749;-48
2022/06/03 11:35:38;;;;;;;3.58;2.90;;;;;;;17.33;63.33;102000.25;5016185;28;20184;-48
2022/06/03 11:38:06;;;;;;;3.65;3.35;;;;;;;17.41;62.00;102006.19;5032942;28;20359;-49
2022/06/03 11:40:40;;;;;;;3.97;3.05;;;;;;;17.36;61.79;102008.19;5031916;28;20604;-48
2022/06/03 11:43:29;;;;;;;5.55;3.60;;;;;;;17.16;62.69;102007.31;5032064;28;20227;-50
2022/06/03 11:46:02;;;;;;;3.60;3.08;;;;;;;17.79;62.18;101998.84;5031915;28;20275;-48
2022/06/03 11:48:40;;;;;;;6.68;3.53;;;;;;;17.32;61.15;101996.66;5032348;28;20188;-49
2022/06/03 11:51:08;;;;;;;6.20;3.50;;;;;;;18.02;61.45;101991.44;5032322;28;20275;-49
2022/06/03 11:53:39;;;;;;;7.10;3.70;;;;;;;18.38;59.39;101998.63;5031557;28;20215;-49
2022/06/03 11:56:08;;;;;;;4.53;3.45;;;;;;;18.61;60.47;101994.72;5031966;28;20815;-49
2022/06/03 11:58:57;;;;;;;3.88;3.50;;;;;;;17.78;59.29;101985.41;5031255;28;20188;-50
2022/06/03 12:01:50;;;;;;;5.40;3.42;;;;;;;19.01;58.18;101982.56;5032267;28;20168;-49
2022/06/03 12:04:53;;;;;;;4.03;2.92;;;;;;;18.20;57.03;101986.91;5028910;28;20238;-49
2022/06/03 12:07:41;;;;;;;6.20;3.15;;;;;;;18.31;59.11;101988.09;5031986;28;20729;-47
2022/06/03 12:10:34;;;;;;;3.83;3.42;;;;;;;17.76;61.43;101987.31;5031954;28;20184;-50
2022/06/03 12:13:30;;;;;;;6.05;3.85;;;;;;;17.40;63.72;101989.00;5031373;28;20203;-48
2022/06/03 12:16:14;;;;;;;6.95;3.80;;;;;;;17.29;65.92;101981.44;5031706;28;20184;-49
2022/06/03 12:18:56;;;;;;;5.03;3.47;;;;;;;17.15;67.06;101986.63;5031609;28;20350;-48
2022/06/03 12:21:28;;;;;;;7.13;4.80;;;;;;;16.72;70.84;101988.56;5032210;28;20175;-46
2022/06/03 12:23:54;;;;;;;6.90;4.22;;;;;;;17.06;71.95;101977.09;5031290;28;20247;-46
2022/06/03 12:26:29;;;;;;;4.45;4.05;;;;;;;17.25;68.63;101969.00;5031797;28;20549;-43
2022/06/03 12:29:07;;;;;;;6.57;3.17;;;;;;;17.13;64.86;101960.56;5031449;28;20203;-47
2022/06/03 12:31:42;;;;;;;4.63;3.08;;;;;;;17.16;67.95;101964.00;5031685;28;20180;-46
2022/06/03 12:34:11;;;;;;;5.80;3.20;;;;;;;17.00;66.25;101961.13;5031127;28;20206;-46
2022/06/03 12:36:51;;;;;;;6.78;3.60;;;;;;;17.29;64.08;101962.47;5031472;28;20194;-44
2022/06/03 12:39:26;;;;;;;4.25;3.00;;;;;;;17.36;62.92;101951.31;5031443;28;20191;-47
2022/06/03 12:41:56;;;;;;;6.40;3.70;;;;;;;17.28;67.18;101949.88;5031562;28;20258;-45
2022/06/03 12:44:41;;;;;;;4.13;3.72;;;;;;;17.01;68.63;101954.78;5031229;28;20203;-46
2022/06/03 12:47:34;;;;;;;6.63;3.70;;;;;;;17.13;69.00;101963.28;5031254;28;20650;-46
2022/06/03 12:50:24;;;;;;;8.07;4.43;;;;;;;16.75;71.42;101950.56;5031411;28;20200;-46
2022/06/03 12:53:00;;;;;;;5.95;4.45;;;;;;;16.57;71.64;101959.50;5030904;28;20199;-45
2022/06/03 12:55:31;;;;;;;7.32;4.13;;;;;;;16.78;69.56;101953.09;5028465;28;20176;-46
2022/06/03 12:58:03;;;;;;;5.50;4.05;;;;;;;17.03;67.59;101943.88;5021792;28;20677;-45
2022/06/03 13:00:35;;;;;;;6.05;3.20;;;;;;;17.47;64.91;101936.31;5031590;28;20393;-45